Time;durP1;ratioP1;P1;durP2;ratioP2;P2;SDS_P1;SDS_P2;PMS_P1;PMS_P2;Temp;Humidity;BMP_temperature;BMP_pressure;BME280_temperature;BME280_humidity;BME280_pressure;Samples;Min_cycle;Max_cycle;Signal;HPM_P1;HPM_P2
2023/08/19 00:01:42;;;;;;;21.05;18.08;;;;;;;23.72;100.00;101175.56;5037613;28;20129;-65
2023/08/19 00:04:08;;;;;;;20.77;18.55;;;;;;;23.71;100.00;101175.78;5044254;28;20052;-64
2023/08/19 00:06:38;;;;;;;21.55;18.42;;;;;;;23.68;100.00;101172.53;5039553;28;20079;-64
2023/08/19 00:09:08;;;;;;;20.70;18.52;;;;;;;23.66;100.00;101176.47;5039734;28;20072;-65
2023/08/19 00:11:36;;;;;;;19.08;17.17;;;;;;;23.66;100.00;101169.25;5039735;28;20109;-65
2023/08/19 00:14:04;;;;;;;19.65;17.60;;;;;;;23.66;100.00;101171.13;5037444;28;20051;-64
2023/08/19 00:16:30;;;;;;;21.83;17.75;;;;;;;23.63;100.00;101180.41;5031288;28;20136;-64
2023/08/19 00:18:57;;;;;;;20.60;18.40;;;;;;;23.60;100.00;101163.97;5038218;28;20049;-65
2023/08/19 00:21:23;;;;;;;20.55;18.35;;;;;;;23.55;100.00;101175.34;5041659;28;20080;-66
2023/08/19 00:23:50;;;;;;;22.25;19.83;;;;;;;23.55;100.00;101174.53;5024480;28;20059;-65
2023/08/19 00:26:17;;;;;;;22.65;20.23;;;;;;;23.53;100.00;101174.75;5030957;28;20566;-65
2023/08/19 00:28:43;;;;;;;22.25;19.90;;;;;;;23.49;100.00;101171.69;5024674;28;20057;-66
2023/08/19 00:31:10;;;;;;;22.30;19.67;;;;;;;23.42;100.00;101160.28;5029497;28;20102;-65
2023/08/19 00:33:36;;;;;;;23.15;19.55;;;;;;;23.40;100.00;101158.84;5028095;28;20050;-65
2023/08/19 00:36:03;;;;;;;21.52;19.27;;;;;;;23.38;100.00;101156.38;5032381;28;20057;-65
2023/08/19 00:38:30;;;;;;;25.50;20.83;;;;;;;23.36;100.00;101157.66;5018505;28;20785;-64
2023/08/19 00:40:56;;;;;;;22.45;20.10;;;;;;;23.35;100.00;101164.06;5032373;28;20057;-65
2023/08/19 00:43:22;;;;;;;22.67;20.38;;;;;;;23.32;100.00;101161.81;5037223;28;20607;-65
2023/08/19 00:45:50;;;;;;;22.75;20.35;;;;;;;23.24;100.00;101166.41;5030275;28;20078;-65
2023/08/19 00:48:18;;;;;;;22.88;20.52;;;;;;;23.26;100.00;101164.34;5038075;28;20053;-65
2023/08/19 00:50:45;;;;;;;21.95;18.95;;;;;;;23.25;100.00;101165.38;5036978;28;20057;-65
2023/08/19 00:53:13;;;;;;;23.13;20.73;;;;;;;23.22;100.00;101165.00;5028122;28;20145;-65
2023/08/19 00:55:40;;;;;;;23.10;20.70;;;;;;;23.19;100.00;101168.13;5042418;28;20052;-65
2023/08/19 00:58:08;;;;;;;22.40;19.92;;;;;;;23.22;100.00;101165.81;5030493;28;20499;-65
2023/08/19 01:00:35;;;;;;;22.70;20.20;;;;;;;23.21;100.00;101160.72;5040891;28;20049;-65
2023/08/19 01:03:04;;;;;;;21.63;19.60;;;;;;;23.17;100.00;101163.00;5043802;28;20126;-65
2023/08/19 01:05:51;;;;;;;23.38;20.80;;;;;;;23.16;100.00;101150.66;5034627;28;20103;-65
2023/08/19 01:08:24;;;;;;;23.90;20.33;;;;;;;23.15;100.00;101148.19;5045750;28;20477;-65
2023/08/19 01:11:02;;;;;;;24.05;20.25;;;;;;;23.12;100.00;101152.16;5032790;28;20106;-65
2023/08/19 01:13:36;;;;;;;23.33;20.95;;;;;;;23.11;100.00;101155.88;5031844;28;20049;-65
2023/08/19 01:16:20;;;;;;;23.02;20.65;;;;;;;23.12;100.00;101143.31;5036863;28;20127;-65
2023/08/19 01:18:48;;;;;;;23.70;21.25;;;;;;;23.07;100.00;101151.97;5024716;28;20099;-65
2023/08/19 01:21:15;;;;;;;24.30;21.80;;;;;;;23.08;100.00;101153.63;5025813;28;20139;-64
2023/08/19 01:23:46;;;;;;;23.90;20.95;;;;;;;23.07;100.00;101162.69;5030069;28;20057;-64
2023/08/19 01:26:13;;;;;;;22.13;19.73;;;;;;;23.05;100.00;101162.94;5033151;28;20041;-64
2023/08/19 01:28:39;;;;;;;23.85;21.42;;;;;;;23.05;100.00;101162.09;5022781;28;20561;-64
2023/08/19 01:31:06;;;;;;;23.15;20.75;;;;;;;23.00;100.00;101149.34;5032136;28;20077;-64
2023/08/19 01:33:33;;;;;;;23.98;21.45;;;;;;;23.03;100.00;101161.50;5015286;28;20957;-64
2023/08/19 01:36:10;;;;;;;23.40;20.90;;;;;;;23.02;100.00;101168.69;5039976;28;20046;-64
2023/08/19 01:38:58;;;;;;;23.80;20.95;;;;;;;23.01;100.00;101158.19;5021803;28;20414;-64
2023/08/19 01:41:28;;;;;;;24.63;21.45;;;;;;;22.97;100.00;101157.81;5036638;28;20200;-64
2023/08/19 01:43:57;;;;;;;22.30;19.90;;;;;;;22.97;100.00;101143.63;5042421;28;20551;-64
2023/08/19 01:46:27;;;;;;;23.77;21.38;;;;;;;22.93;100.00;101145.09;5027377;28;20057;-65
2023/08/19 01:48:54;;;;;;;22.90;20.55;;;;;;;22.88;100.00;101137.75;5039971;28;20471;-65
2023/08/19 01:51:21;;;;;;;23.90;21.27;;;;;;;22.87;100.00;101136.09;5040033;28;20106;-64
2023/08/19 01:53:47;;;;;;;23.77;21.10;;;;;;;22.84;100.00;101136.56;5031302;28;20050;-64
2023/08/19 01:56:14;;;;;;;23.50;21.05;;;;;;;22.86;100.00;101139.81;5024971;28;20898;-64
2023/08/19 01:58:40;;;;;;;25.40;21.75;;;;;;;22.81;100.00;101139.66;5030969;28;20057;-64
2023/08/19 02:01:11;;;;;;;23.77;21.27;;;;;;;22.80;100.00;101138.03;5030429;28;20132;-64
2023/08/19 02:03:38;;;;;;;24.15;21.48;;;;;;;22.80;100.00;101136.19;5021843;28;20160;-65
2023/08/19 02:06:05;;;;;;;25.15;21.77;;;;;;;22.76;100.00;101124.28;5033855;28;20482;-65
2023/08/19 02:08:31;;;;;;;24.10;21.60;;;;;;;22.74;100.00;101126.38;5038039;28;20139;-65
2023/08/19 02:10:58;;;;;;;25.17;21.45;;;;;;;22.74;100.00;101122.84;5026570;28;20080;-64
2023/08/19 02:13:24;;;;;;;24.00;21.42;;;;;;;22.74;100.00;101120.16;5032706;28;20831;-65
2023/08/19 02:15:51;;;;;;;23.55;21.15;;;;;;;22.74;100.00;101112.16;5036601;28;20049;-64
2023/08/19 02:18:18;;;;;;;23.30;20.85;;;;;;;22.73;100.00;101111.34;5045806;28;20057;-65
2023/08/19 02:20:48;;;;;;;23.88;21.27;;;;;;;22.72;100.00;101115.06;5021636;28;20053;-65
2023/08/19 02:23:14;;;;;;;23.08;20.77;;;;;;;22.69;100.00;101108.28;5032846;28;20137;-64
2023/08/19 02:25:41;;;;;;;25.05;21.92;;;;;;;22.69;100.00;101113.63;5040143;28;20481;-64
2023/08/19 02:28:07;;;;;;;23.40;20.73;;;;;;;22.69;100.00;101113.63;5035881;28;20107;-65
2023/08/19 02:30:33;;;;;;;23.30;20.90;;;;;;;22.71;100.00;101105.41;5036308;28;20057;-64
2023/08/19 02:33:07;;;;;;;24.35;21.83;;;;;;;22.74;100.00;101096.94;5042882;28;20582;-64
2023/08/19 02:35:34;;;;;;;29.85;22.00;;;;;;;22.69;100.00;101086.91;5045692;28;20100;-64
2023/08/19 02:38:00;;;;;;;24.60;21.95;;;;;;;22.70;100.00;101090.41;5037237;28;20049;-65
2023/08/19 02:40:30;;;;;;;24.15;21.60;;;;;;;22.69;100.00;101088.75;5036853;28;20448;-65
2023/08/19 02:42:57;;;;;;;24.83;22.10;;;;;;;22.73;100.00;101095.28;5025398;28;20049;-64
2023/08/19 02:45:24;;;;;;;24.45;21.98;;;;;;;22.76;100.00;101089.53;5034294;28;20463;-65
2023/08/19 02:47:51;;;;;;;24.15;21.65;;;;;;;22.77;100.00;101101.03;5037677;28;20810;-64
2023/08/19 02:50:18;;;;;;;23.35;20.95;;;;;;;22.78;100.00;101095.47;5042937;28;20057;-64
2023/08/19 02:52:44;;;;;;;26.50;22.48;;;;;;;22.80;100.00;101096.06;5034184;28;20061;-64
2023/08/19 02:55:10;;;;;;;24.13;21.60;;;;;;;22.81;100.00;101097.69;5024136;28;20829;-64
2023/08/19 02:57:37;;;;;;;24.67;22.17;;;;;;;22.82;100.00;101098.53;5032298;28;20544;-65
2023/08/19 03:00:04;;;;;;;23.55;21.15;;;;;;;22.83;100.00;101100.13;5009915;28;20080;-64
2023/08/19 03:02:30;;;;;;;24.17;21.63;;;;;;;22.82;100.00;101095.84;5038745;28;20132;-64
2023/08/19 03:04:57;;;;;;;25.95;22.30;;;;;;;22.81;100.00;101097.69;5027267;28;20091;-64
2023/08/19 03:07:24;;;;;;;23.48;20.98;;;;;;;22.83;100.00;101092.13;5037147;28;20132;-65
2023/08/19 03:09:50;;;;;;;24.27;21.13;;;;;;;22.82;100.00;101090.50;5031838;28;20612;-64
2023/08/19 03:12:16;;;;;;;24.52;21.85;;;;;;;22.83;100.00;101090.25;5034078;28;20126;-64
2023/08/19 03:14:43;;;;;;;24.55;21.92;;;;;;;22.83;100.00;101089.44;5031499;28;20080;-64
2023/08/19 03:17:09;;;;;;;25.05;22.38;;;;;;;22.83;100.00;101089.44;5032388;28;20057;-65
2023/08/19 03:19:36;;;;;;;24.25;21.30;;;;;;;22.83;100.00;101090.25;5044540;28;20867;-65
2023/08/19 03:22:02;;;;;;;24.15;21.55;;;;;;;22.85;100.00;101084.69;5023421;28;20053;-65
2023/08/19 03:24:29;;;;;;;25.42;22.30;;;;;;;22.83;100.00;101081.41;5038551;28;20057;-65
2023/08/19 03:26:55;;;;;;;24.15;20.73;;;;;;;22.83;100.00;101078.75;5033844;28;20130;-64
2023/08/19 03:29:23;;;;;;;24.70;22.10;;;;;;;22.85;100.00;101080.16;5026368;28;20056;-65
2023/08/19 03:31:50;;;;;;;;;;;;;;;22.89;100.00;101088.56;5024140;28;20132;-64
2023/08/19 03:34:16;;;;;;;23.98;21.48;;;;;;;22.90;100.00;101083.00;5031874;28;20373;-64
2023/08/19 03:36:43;;;;;;;24.20;20.92;;;;;;;22.88;100.00;101077.03;5035950;28;20056;-64
2023/08/19 03:39:09;;;;;;;25.65;20.15;;;;;;;22.90;100.00;101074.16;5040466;28;20083;-65
2023/08/19 03:41:35;;;;;;;24.17;21.55;;;;;;;22.88;100.00;101076.25;5045355;28;20734;-64
2023/08/19 03:44:02;;;;;;;24.55;21.25;;;;;;;22.90;100.00;101082.19;5042807;28;20053;-64
2023/08/19 03:46:28;;;;;;;25.17;20.55;;;;;;;22.89;100.00;101084.03;5023718;28;20553;-65
2023/08/19 03:48:55;;;;;;;24.30;21.60;;;;;;;22.90;100.00;101091.00;5026282;28;20103;-64
2023/08/19 03:51:21;;;;;;;23.42;20.92;;;;;;;22.92;100.00;101081.97;5032671;28;20099;-65
2023/08/19 03:53:48;;;;;;;24.40;21.20;;;;;;;22.90;100.00;101093.69;5032886;28;20766;-65
2023/08/19 03:56:16;;;;;;;25.02;20.83;;;;;;;22.94;100.00;101090.59;5028689;28;20055;-64
2023/08/19 03:58:43;;;;;;;24.00;20.52;;;;;;;22.94;100.00;101082.56;5043258;28;20076;-64
2023/08/19 04:01:09;;;;;;;21.90;19.65;;;;;;;22.93;100.00;101081.72;5038868;28;20579;-64
2023/08/19 04:03:36;;;;;;;23.02;20.63;;;;;;;22.89;100.00;101078.69;5015663;28;20105;-65
2023/08/19 04:06:03;;;;;;;24.13;20.70;;;;;;;22.93;100.00;101078.22;5038357;28;20106;-65
2023/08/19 04:08:29;;;;;;;25.55;20.50;;;;;;;22.94;100.00;101082.56;5034516;28;20508;-64
2023/08/19 04:11:06;;;;;;;23.55;20.77;;;;;;;22.95;100.00;101076.16;5044968;28;20140;-65
2023/08/19 04:13:33;;;;;;;22.45;19.90;;;;;;;22.95;100.00;101085.00;5024148;28;20049;-65
2023/08/19 04:16:04;;;;;;;21.77;19.38;;;;;;;22.98;100.00;101079.22;5028372;28;20057;-64
2023/08/19 04:18:34;;;;;;;21.73;19.50;;;;;;;23.00;100.00;101069.09;5036247;28;20052;-65
2023/08/19 04:21:03;;;;;;;23.23;20.33;;;;;;;23.00;100.00;101063.75;5022127;28;20552;-65
2023/08/19 04:23:30;;;;;;;23.65;20.20;;;;;;;22.99;100.00;101061.28;5035842;28;20106;-64
2023/08/19 04:25:56;;;;;;;21.90;19.48;;;;;;;22.98;100.00;101073.03;5020834;28;20048;-65
2023/08/19 04:28:23;;;;;;;23.05;19.63;;;;;;;22.98;100.00;101075.72;5031403;28;20088;-65
2023/08/19 04:30:49;;;;;;;19.95;17.95;;;;;;;22.98;100.00;101075.72;5027318;28;20049;-65
2023/08/19 04:33:16;;;;;;;23.05;19.23;;;;;;;22.96;100.00;101072.44;5029675;28;20115;-64
2023/08/19 04:35:43;;;;;;;19.92;17.73;;;;;;;22.98;100.00;101076.53;5042447;28;20049;-65
2023/08/19 04:38:10;;;;;;;21.30;18.17;;;;;;;22.99;100.00;101070.16;5030524;28;20119;-64
2023/08/19 04:40:36;;;;;;;20.33;18.05;;;;;;;22.96;100.00;101073.25;5025981;28;20685;-64
2023/08/19 04:43:03;;;;;;;20.17;18.08;;;;;;;22.98;100.00;101079.22;5026386;28;20049;-65
2023/08/19 04:45:29;;;;;;;20.52;16.48;;;;;;;22.98;100.00;101087.22;5037999;28;20055;-64
2023/08/19 04:47:56;;;;;;;23.98;17.80;;;;;;;22.98;100.00;101076.53;5020521;28;20053;-65
2023/08/19 04:50:22;;;;;;;19.60;16.55;;;;;;;23.01;100.00;101072.59;5017344;28;20071;-65
2023/08/19 04:52:50;;;;;;;20.02;17.45;;;;;;;22.99;100.00;101074.66;5026095;28;20111;-65
2023/08/19 04:55:16;;;;;;;19.98;16.80;;;;;;;22.97;100.00;101069.53;5021673;28;20059;-65
2023/08/19 04:57:43;;;;;;;18.60;16.80;;;;;;;22.97;100.00;101069.53;5039281;28;20045;-65
2023/08/19 05:00:12;;;;;;;19.50;15.38;;;;;;;22.99;100.00;101077.34;5036340;28;20060;-65
2023/08/19 05:02:39;;;;;;;21.95;16.40;;;;;;;23.01;100.00;101088.63;5040151;28;20073;-65
2023/08/19 05:05:06;;;;;;;19.30;15.95;;;;;;;22.99;100.00;101090.72;5042730;28;20056;-64
2023/08/19 05:07:32;;;;;;;19.85;15.55;;;;;;;23.01;100.00;101093.97;5029200;28;20058;-64
2023/08/19 05:09:59;;;;;;;18.27;15.23;;;;;;;23.01;100.00;101080.59;5021367;28;20652;-64
2023/08/19 05:12:26;;;;;;;19.35;15.30;;;;;;;22.99;100.00;101080.84;5037509;28;20049;-66
2023/08/19 05:14:53;;;;;;;21.58;14.98;;;;;;;23.00;100.00;101087.00;5031938;28;20472;-65
2023/08/19 05:17:19;;;;;;;21.75;15.18;;;;;;;23.01;100.00;101097.50;5032373;28;20131;-65
2023/08/19 05:19:45;;;;;;;16.30;13.70;;;;;;;23.04;100.00;101098.94;5044228;28;20057;-65
2023/08/19 05:22:12;;;;;;;18.60;14.18;;;;;;;23.06;100.00;101096.84;5025873;28;20104;-65
2023/08/19 05:24:38;;;;;;;18.58;13.93;;;;;;;23.07;100.00;101107.34;5018339;28;20053;-65
2023/08/19 05:27:05;;;;;;;18.95;14.10;;;;;;;23.09;100.00;101112.44;5031411;28;20151;-65
2023/08/19 05:29:32;;;;;;;16.98;13.25;;;;;;;23.13;100.00;101118.16;5020548;28;20045;-65
2023/08/19 05:31:58;;;;;;;17.50;13.20;;;;;;;23.15;100.00;101116.94;5024591;28;20472;-65
2023/08/19 05:34:25;;;;;;;16.00;13.38;;;;;;;23.17;100.00;101122.88;5022099;28;20049;-65
2023/08/19 05:36:51;;;;;;;18.05;13.43;;;;;;;23.20;100.00;101126.94;5030061;28;20049;-65
2023/08/19 05:39:18;;;;;;;18.15;12.98;;;;;;;23.22;100.00;101125.69;5033459;28;20099;-64
2023/08/19 05:41:44;;;;;;;17.95;13.52;;;;;;;23.25;100.00;101125.25;5035336;28;20786;-64
2023/08/19 05:44:11;;;;;;;18.48;12.80;;;;;;;23.25;100.00;101119.09;5043309;28;20072;-65
2023/08/19 05:46:39;;;;;;;16.92;13.18;;;;;;;23.26;100.00;101123.38;5038073;28;20053;-65
2023/08/19 05:49:05;;;;;;;19.75;12.80;;;;;;;23.27;100.00;101117.81;5027738;28;20048;-65
2023/08/19 05:51:32;;;;;;;20.88;13.43;;;;;;;23.28;100.00;101111.41;5031111;28;20582;-65
2023/08/19 05:54:00;;;;;;;17.52;12.23;;;;;;;23.29;100.00;101110.38;5041091;28;20558;-65
2023/08/19 05:56:27;;;;;;;16.55;12.40;;;;;;;23.30;100.00;101112.00;5028731;28;20056;-65
2023/08/19 05:58:53;;;;;;;21.60;12.45;;;;;;;23.32;100.00;101117.13;5026142;28;20049;-65
2023/08/19 06:01:20;;;;;;;15.23;12.13;;;;;;;23.31;100.00;101112.84;5040477;28;20464;-65
2023/08/19 06:03:50;;;;;;;17.00;12.30;;;;;;;23.32;100.00;101114.47;5000255;28;20103;-64
2023/08/19 06:06:16;;;;;;;14.13;11.73;;;;;;;23.34;100.00;101107.03;5039234;28;20482;-65
2023/08/19 06:08:43;;;;;;;14.57;10.63;;;;;;;23.36;100.00;101112.97;5049271;28;20099;-65
2023/08/19 06:11:10;;;;;;;13.77;10.82;;;;;;;23.38;100.00;101107.41;5042385;28;20118;-65
2023/08/19 06:13:37;;;;;;;15.73;11.63;;;;;;;23.41;100.00;101112.31;5030901;28;20435;-65
2023/08/19 06:16:04;;;;;;;13.07;10.70;;;;;;;23.47;100.00;101120.25;5029266;28;20045;-65
2023/08/19 06:18:32;;;;;;;16.17;11.15;;;;;;;23.51;100.00;101120.63;5033297;28;20136;-65
2023/08/19 06:20:59;;;;;;;16.23;11.27;;;;;;;23.56;100.00;101117.25;5032516;28;20059;-65
2023/08/19 06:23:26;;;;;;;14.25;10.70;;;;;;;23.61;100.00;101118.22;5047685;28;20049;-65
2023/08/19 06:25:53;;;;;;;21.85;11.07;;;;;;;23.64;100.00;101112.44;5032875;28;20107;-64
2023/08/19 06:28:21;;;;;;;18.88;11.45;;;;;;;23.68;100.00;101118.16;5047341;28;20080;-65
2023/08/19 06:30:48;;;;;;;14.35;11.57;;;;;;;23.71;100.00;101130.25;5029883;28;20075;-65
2023/08/19 06:33:16;;;;;;;13.93;10.93;;;;;;;23.73;100.00;101131.66;5009498;28;20057;-65
2023/08/19 06:35:48;;;;;;;16.70;11.43;;;;;;;23.83;100.00;101123.13;5024486;28;20056;-65
2023/08/19 06:38:23;;;;;;;14.73;11.20;;;;;;;23.88;100.00;101116.03;5032604;28;20277;-65
2023/08/19 06:40:58;;;;;;;15.95;11.38;;;;;;;23.96;100.00;101114.91;5038136;28;20070;-65
2023/08/19 06:43:28;;;;;;;15.00;11.00;;;;;;;23.99;100.00;101114.44;5037090;28;20049;-65
2023/08/19 06:45:55;;;;;;;15.80;11.02;;;;;;;24.01;100.00;101111.53;5033321;28;20045;-65
2023/08/19 06:48:23;;;;;;;15.20;10.70;;;;;;;24.07;100.00;101115.97;5034268;28;20115;-65
2023/08/19 06:50:51;;;;;;;16.85;10.82;;;;;;;24.11;100.00;101117.16;5039403;28;20053;-64
2023/08/19 06:53:18;;;;;;;16.13;11.40;;;;;;;24.13;100.00;101114.22;5047580;28;20743;-65
2023/08/19 06:55:54;;;;;;;17.17;11.10;;;;;;;24.14;100.00;101116.69;5029834;28;20053;-66
2023/08/19 06:58:24;;;;;;;13.18;10.27;;;;;;;24.19;100.00;101110.66;5035869;28;20111;-65
2023/08/19 07:00:58;;;;;;;15.80;10.65;;;;;;;24.23;100.00;101123.34;5025264;28;20056;-64
2023/08/19 07:03:32;;;;;;;17.15;10.70;;;;;;;24.28;100.00;101139.56;5043850;28;20053;-65
2023/08/19 07:06:01;;;;;;;14.75;11.07;;;;;;;24.34;100.00;101142.38;5031203;28;20556;-65
2023/08/19 07:08:30;;;;;;;17.45;10.90;;;;;;;24.41;100.00;101141.22;5043130;28;20183;-66
2023/08/19 07:11:00;;;;;;;15.75;10.07;;;;;;;24.51;100.00;101143.38;5034158;28;20061;-65
2023/08/19 07:13:28;;;;;;;18.88;10.82;;;;;;;24.57;100.00;101142.44;5023595;28;20061;-64
2023/08/19 07:16:00;;;;;;;16.38;10.32;;;;;;;24.62;100.00;101150.63;5037080;28;20433;-65
2023/08/19 07:18:29;;;;;;;15.63;9.93;;;;;;;24.67;100.00;101144.53;5030699;28;20056;-65
2023/08/19 07:20:57;;;;;;;14.05;9.85;;;;;;;24.74;100.00;101141.75;5043846;28;20067;-65
2023/08/19 07:23:24;;;;;;;15.90;9.45;;;;;;;24.80;100.00;101149.69;5020706;28;20053;-65
2023/08/19 07:25:50;;;;;;;12.70;9.23;;;;;;;24.85;100.00;101148.97;5033942;28;20140;-64
2023/08/19 07:28:22;;;;;;;14.93;8.02;;;;;;;24.92;100.00;101151.56;5042310;28;20110;-64
2023/08/19 07:30:48;;;;;;;15.02;7.30;;;;;;;24.99;100.00;101147.69;5032913;28;20049;-65
2023/08/19 07:33:16;;;;;;;12.63;8.07;;;;;;;25.09;100.00;101149.78;5027407;28;20049;-65
2023/08/19 07:35:43;;;;;;;13.43;7.10;;;;;;;25.15;100.00;101146.16;5032580;28;20056;-65
2023/08/19 07:38:10;;;;;;;10.30;6.85;;;;;;;25.17;100.00;101148.59;5034515;28;20099;-65
2023/08/19 07:40:37;;;;;;;12.68;6.90;;;;;;;25.21;100.00;101155.16;5027326;28;20139;-65
2023/08/19 07:43:03;;;;;;;11.48;7.63;;;;;;;25.23;100.00;101148.50;5037812;28;20041;-64
2023/08/19 07:45:30;;;;;;;12.85;7.13;;;;;;;25.28;100.00;101149.66;5036453;28;20217;-65
2023/08/19 07:47:56;;;;;;;8.45;6.55;;;;;;;25.32;100.00;101157.00;5027934;28;20061;-65
2023/08/19 07:50:23;;;;;;;11.18;7.13;;;;;;;25.36;100.00;101165.41;5037362;28;20152;-65
2023/08/19 07:52:50;;;;;;;11.10;6.53;;;;;;;25.35;100.00;101164.59;5028129;28;20070;-64
2023/08/19 07:55:16;;;;;;;11.98;6.90;;;;;;;25.38;100.00;101161.44;5035494;28;20148;-64
2023/08/19 07:57:43;;;;;;;7.70;5.85;;;;;;;25.43;100.00;101158.03;5020894;28;20089;-66
2023/08/19 08:00:09;;;;;;;12.93;7.50;;;;;;;25.46;100.00;101162.94;5036357;28;20521;-65
2023/08/19 08:02:36;;;;;;;9.68;6.60;;;;;;;25.57;100.00;101163.97;5032096;28;20151;-65
2023/08/19 08:05:03;;;;;;;11.40;6.38;;;;;;;25.67;100.00;101163.34;5028894;28;20886;-65
2023/08/19 08:07:30;;;;;;;9.37;5.80;;;;;;;25.73;100.00;101167.75;5032648;28;20052;-64
2023/08/19 08:09:56;;;;;;;12.57;6.87;;;;;;;25.82;100.00;101177.09;5015875;28;20080;-65
2023/08/19 08:12:23;;;;;;;12.20;6.70;;;;;;;25.83;100.00;101187.59;5030503;28;20045;-65
2023/08/19 08:14:49;;;;;;;8.32;6.15;;;;;;;25.84;100.00;101180.34;5028802;28;20049;-64
2023/08/19 08:17:16;;;;;;;8.27;4.80;;;;;;;25.98;100.00;101186.28;5016961;28;20103;-65
2023/08/19 08:19:43;;;;;;;10.20;5.38;;;;;;;26.00;100.00;101184.16;5035820;28;20106;-65
2023/08/19 08:22:09;;;;;;;11.88;5.90;;;;;;;26.16;100.00;101182.56;5020192;28;20049;-64
2023/08/19 08:24:35;;;;;;;10.32;6.15;;;;;;;26.22;100.00;101174.34;5023585;28;20110;-64
2023/08/19 08:27:02;;;;;;;10.38;5.95;;;;;;;26.34;100.00;101176.97;5028887;28;20107;-65
2023/08/19 08:29:29;;;;;;;11.02;6.75;;;;;;;26.41;100.00;101183.00;5029170;28;20119;-64
2023/08/19 08:31:55;;;;;;;9.30;6.32;;;;;;;26.41;100.00;101204.53;5025026;28;20103;-65
2023/08/19 08:34:22;;;;;;;8.52;6.53;;;;;;;26.37;100.00;101205.25;5033766;28;20139;-65
2023/08/19 08:36:48;;;;;;;11.80;6.90;;;;;;;26.40;100.00;101208.28;5037162;28;20914;-64
2023/08/19 08:39:14;;;;;;;9.23;6.95;;;;;;;26.46;100.00;101214.53;5038820;28;20552;-65
2023/08/19 08:41:42;;;;;;;12.55;6.93;;;;;;;26.51;100.00;101203.88;5034201;28;20114;-64
2023/08/19 08:44:09;;;;;;;8.30;7.03;;;;;;;26.63;100.00;101210.03;5032564;28;20561;-63
2023/08/19 08:46:36;;;;;;;10.13;6.93;;;;;;;26.67;100.00;101210.34;5038338;28;20778;-65
2023/08/19 08:49:04;;;;;;;12.95;7.70;;;;;;;26.69;100.00;101210.91;5037977;28;20304;-64
2023/08/19 08:51:31;;;;;;;11.30;8.10;;;;;;;26.71;100.00;101213.38;5022568;28;20068;-64
2023/08/19 08:54:00;;;;;;;9.88;7.63;;;;;;;26.76;100.00;101211.59;5038904;28;20142;-65
2023/08/19 08:56:27;;;;;;;11.98;8.38;;;;;;;26.69;100.00;101212.81;5022276;28;20103;-64
2023/08/19 08:58:53;;;;;;;12.20;7.55;;;;;;;26.77;100.00;101201.63;5027398;28;20049;-65
2023/08/19 09:01:22;;;;;;;18.23;8.32;;;;;;;26.80;100.00;101198.47;5042843;28;20048;-65
2023/08/19 09:03:51;;;;;;;11.48;7.97;;;;;;;26.86;100.00;101199.34;5038276;28;20041;-65
2023/08/19 09:06:17;;;;;;;14.23;8.70;;;;;;;26.80;100.00;101214.59;5041847;28;20056;-64
2023/08/19 09:08:54;;;;;;;14.15;8.70;;;;;;;26.73;100.00;101241.66;5038652;28;20127;-64
2023/08/19 09:11:26;;;;;;;16.00;8.23;;;;;;;26.76;100.00;101233.13;5045309;28;20053;-65
2023/08/19 09:14:07;;;;;;;13.35;8.30;;;;;;;26.75;100.00;101227.97;5045914;28;20047;-65
2023/08/19 09:16:34;;;;;;;14.07;9.13;;;;;;;26.78;100.00;101244.44;5053120;28;20466;-65
2023/08/19 09:19:00;;;;;;;10.73;8.45;;;;;;;26.79;100.00;101246.06;5046103;28;20140;-65
2023/08/19 09:21:26;;;;;;;11.63;8.70;;;;;;;26.82;100.00;101253.66;5041196;28;20056;-64
2023/08/19 09:23:53;;;;;;;12.80;9.02;;;;;;;26.74;100.00;101256.75;5049943;28;20102;-65
2023/08/19 09:26:20;;;;;;;15.43;9.50;;;;;;;26.73;100.00;101263.19;5049264;28;20052;-65
2023/08/19 09:28:46;;;;;;;13.25;9.35;;;;;;;26.72;100.00;101268.84;5051730;28;20140;-65
2023/08/19 09:31:18;;;;;;;13.52;9.93;;;;;;;26.65;100.00;101263.59;5037495;28;20163;-65
2023/08/19 09:33:45;;;;;;;11.77;9.05;;;;;;;26.66;100.00;101259.84;5038170;28;20536;-65
2023/08/19 09:36:11;;;;;;;14.88;8.70;;;;;;;26.69;100.00;101256.66;5041095;28;20372;-66
2023/08/19 09:38:38;;;;;;;11.57;9.50;;;;;;;26.73;100.00;101248.94;5047042;28;20051;-66
2023/08/19 09:41:08;;;;;;;14.32;9.80;;;;;;;26.69;100.00;101251.28;5043962;28;20076;-66
2023/08/19 09:43:39;;;;;;;11.40;9.38;;;;;;;26.74;100.00;101267.53;5042960;28;20052;-66
2023/08/19 09:46:05;;;;;;;11.35;9.35;;;;;;;26.72;100.00;101288.47;5039418;28;20468;-66
2023/08/19 09:48:32;;;;;;;12.40;10.18;;;;;;;26.61;100.00;101292.03;5034923;28;20156;-66
2023/08/19 09:50:58;;;;;;;12.55;9.90;;;;;;;26.52;100.00;101302.38;5041050;28;20053;-66
2023/08/19 09:53:28;;;;;;;12.82;9.77;;;;;;;26.46;100.00;101299.81;5038630;28;20057;-65
2023/08/19 09:55:55;;;;;;;13.38;9.93;;;;;;;26.37;100.00;101302.06;5050994;28;20137;-65
2023/08/19 09:58:21;;;;;;;12.55;9.85;;;;;;;26.37;100.00;101300.19;5044784;28;20048;-66
2023/08/19 10:00:48;;;;;;;16.90;10.30;;;;;;;26.46;100.00;101294.41;5039529;28;20139;-65
2023/08/19 10:03:15;;;;;;;12.27;9.82;;;;;;;26.65;100.00;101295.88;5045893;28;20110;-66
2023/08/19 10:05:45;;;;;;;11.63;10.02;;;;;;;26.79;100.00;101293.69;5041570;28;20053;-66
2023/08/19 10:08:18;;;;;;;13.35;10.05;;;;;;;27.03;100.00;101287.09;5043443;28;20045;-66
2023/08/19 10:10:46;;;;;;;15.63;10.27;;;;;;;27.27;100.00;101295.03;5041778;28;20053;-66
2023/08/19 10:13:14;;;;;;;16.23;9.85;;;;;;;27.70;100.00;101290.78;5038418;28;20677;-66
2023/08/19 10:15:42;;;;;;;11.82;9.52;;;;;;;28.06;100.00;101295.84;5042118;28;20048;-66
2023/08/19 10:18:18;;;;;;;19.85;11.07;;;;;;;28.08;100.00;101294.50;5042061;28;20114;-66
2023/08/19 10:20:50;;;;;;;14.63;10.68;;;;;;;28.09;100.00;101300.69;5045110;28;20098;-65
2023/08/19 10:23:18;;;;;;;15.68;11.13;;;;;;;28.07;100.00;101298.28;5038966;28;20107;-65
2023/08/19 10:25:45;;;;;;;14.75;11.10;;;;;;;28.23;100.00;101312.75;5049304;28;20754;-65
2023/08/19 10:28:21;;;;;;;17.90;13.13;;;;;;;28.05;100.00;101324.69;5037506;28;20037;-65
2023/08/19 10:31:07;;;;;;;13.48;11.48;;;;;;;28.29;100.00;101311.72;5036221;28;20051;-66
2023/08/19 10:33:37;;;;;;;21.52;12.50;;;;;;;28.60;100.00;101306.69;5041964;28;20056;-66
2023/08/19 10:36:05;;;;;;;17.40;13.07;;;;;;;28.57;100.00;101316.09;5024717;28;20520;-66
2023/08/19 10:38:46;;;;;;;17.70;15.15;;;;;;;28.67;100.00;101331.56;5046974;28;20052;-66
2023/08/19 10:41:22;;;;;;;18.60;15.70;;;;;;;28.50;100.00;101345.16;5036075;28;20491;-65
2023/08/19 10:44:12;;;;;;;17.92;14.95;;;;;;;28.67;100.00;101339.66;5039470;28;20049;-66
2023/08/19 10:46:40;;;;;;;17.27;13.88;;;;;;;28.84;100.00;101338.75;5052528;28;20056;-65
2023/08/19 10:49:11;;;;;;;20.73;13.40;;;;;;;29.13;100.00;101329.31;5045486;28;20056;-66
2023/08/19 10:52:00;;;;;;;17.73;14.90;;;;;;;29.26;100.00;101338.03;5046353;28;20160;-65
2023/08/19 10:54:41;;;;;;;17.13;14.35;;;;;;;29.40;100.00;101339.19;5044918;28;20048;-65
2023/08/19 10:57:10;;;;;;;18.63;15.70;;;;;;;29.44;100.00;101340.34;5038589;28;20434;-65
2023/08/19 10:59:39;;;;;;;22.77;18.00;;;;;;;29.29;100.00;101346.44;5039278;28;20052;-65
2023/08/19 11:02:06;;;;;;;17.73;15.23;;;;;;;29.28;100.00;101352.09;5044493;28;20079;-66
2023/08/19 11:04:33;;;;;;;20.88;16.35;;;;;;;29.15;100.00;101348.75;5038373;28;20044;-65
2023/08/19 11:07:00;;;;;;;18.05;16.25;;;;;;;28.94;100.00;101338.84;5041996;28;20045;-65
2023/08/19 11:09:27;;;;;;;24.63;17.30;;;;;;;28.87;100.00;101339.03;5044687;28;20052;-66